Time;durP1;ratioP1;P1;durP2;ratioP2;P2;SDS_P1;SDS_P2;PMS_P1;PMS_P2;Temp;Humidity;BMP_temperature;BMP_pressure;BME280_temperature;BME280_humidity;BME280_pressure;Samples;Min_cycle;Max_cycle;Signal;HPM_P1;HPM_P2
2022/04/02 00:02:02;;;;;;;10.00;3.72;;;2.30;99.90;;;;;;5075104;28;20073;-63
2022/04/02 00:04:28;;;;;;;4.80;3.08;;;2.20;99.90;;;;;;5092565;28;20028;-63
2022/04/02 00:06:56;;;;;;;5.25;2.75;;;2.10;99.90;;;;;;5092760;28;20449;-62
2022/04/02 00:09:22;;;;;;;5.32;2.95;;;1.90;99.90;;;;;;5074473;28;20055;-64
2022/04/02 00:11:48;;;;;;;2.60;2.20;;;2.00;99.90;;;;;;5092300;28;20430;-65
2022/04/02 00:14:15;;;;;;;4.07;2.72;;;2.10;99.90;;;;;;5092969;28;20042;-64
2022/04/02 00:16:41;;;;;;;7.30;3.40;;;2.10;99.90;;;;;;5092098;28;20028;-63
2022/04/02 00:19:07;;;;;;;4.57;2.53;;;2.00;99.90;;;;;;5092617;28;20376;-63
2022/04/02 00:21:33;;;;;;;7.53;2.95;;;2.10;99.90;;;;;;5092604;28;20036;-63
2022/04/02 00:23:59;;;;;;;6.25;2.90;;;2.10;99.90;;;;;;5093828;28;20385;-65
2022/04/02 00:26:25;;;;;;;3.55;2.60;;;2.20;99.90;;;;;;5093522;28;20507;-63
2022/04/02 00:28:52;;;;;;;4.47;2.63;;;2.20;99.90;;;;;;5093131;28;20051;-66
2022/04/02 00:31:18;;;;;;;3.83;2.05;;;2.30;99.90;;;;;;5075064;28;20031;-63
2022/04/02 00:33:46;;;;;;;5.15;3.17;;;2.30;99.90;;;;;;5092575;28;20075;-63
2022/04/02 00:36:18;;;;;;;5.07;2.25;;;2.30;99.90;;;;;;5074762;28;20469;-62
2022/04/02 00:38:43;;;;;;;4.20;2.33;;;2.20;99.90;;;;;;5092708;28;20029;-63
2022/04/02 00:41:09;;;;;;;10.07;2.60;;;2.20;99.90;;;;;;5093671;28;20380;-63
2022/04/02 00:43:42;;;;;;;3.80;2.92;;;2.20;99.90;;;;;;5096211;28;20561;-63
2022/04/02 00:46:12;;;;;;;3.40;2.22;;;2.10;99.90;;;;;;5099048;28;20021;-63
2022/04/02 00:48:39;;;;;;;7.95;3.72;;;2.10;99.90;;;;;;5098439;28;20107;-66
2022/04/02 00:51:07;;;;;;;5.97;3.03;;;2.20;99.90;;;;;;5098711;28;20024;-68
2022/04/02 00:53:37;;;;;;;12.93;3.38;;;2.20;99.90;;;;;;5097490;28;20036;-63
2022/04/02 00:56:05;;;;;;;5.38;2.53;;;2.20;99.90;;;;;;5079982;28;20063;-63
2022/04/02 00:58:31;;;;;;;7.80;2.83;;;2.20;99.90;;;;;;5077906;28;20039;-65
2022/04/02 01:00:57;;;;;;;6.20;2.42;;;2.20;99.90;;;;;;5078183;28;20028;-63
2022/04/02 01:03:23;;;;;;;4.75;2.25;;;2.10;99.90;;;;;;5096446;28;20381;-64
2022/04/02 01:05:50;;;;;;;9.05;2.95;;;2.10;99.90;;;;;;5078122;28;20066;-68
2022/04/02 01:08:16;;;;;;;6.38;2.80;;;2.10;99.90;;;;;;5096859;28;20065;-65
2022/04/02 01:10:42;;;;;;;6.07;2.30;;;2.10;99.90;;;;;;5078489;28;20113;-63
2022/04/02 01:13:09;;;;;;;11.30;3.13;;;2.10;99.90;;;;;;5096683;28;20460;-66
2022/04/02 01:15:35;;;;;;;6.22;2.72;;;2.10;99.90;;;;;;5096765;28;20358;-68
2022/04/02 01:18:00;;;;;;;4.78;2.13;;;2.10;99.90;;;;;;5079199;28;20028;-64
2022/04/02 01:20:29;;;;;;;4.82;2.28;;;2.20;99.90;;;;;;5098027;28;20035;-64
2022/04/02 01:22:55;;;;;;;5.18;2.67;;;2.10;99.90;;;;;;5098052;28;20032;-64
2022/04/02 01:25:21;;;;;;;5.78;2.75;;;2.10;99.90;;;;;;5079832;28;20522;-67
2022/04/02 01:27:47;;;;;;;5.22;2.40;;;2.00;99.90;;;;;;5078330;28;20028;-66
2022/04/02 01:30:14;;;;;;;7.40;3.20;;;2.00;99.90;;;;;;5078846;28;20032;-64
2022/04/02 01:32:41;;;;;;;6.53;2.78;;;2.00;99.90;;;;;;5079630;28;20095;-65
2022/04/02 01:35:08;;;;;;;5.03;2.60;;;1.80;99.90;;;;;;5079493;28;20020;-66
2022/04/02 01:37:36;;;;;;;7.60;3.60;;;1.70;99.90;;;;;;5096262;28;20051;-63
2022/04/02 01:40:06;;;;;;;5.05;2.47;;;1.70;99.90;;;;;;5095924;28;20052;-63
2022/04/02 01:42:32;;;;;;;4.45;2.60;;;1.90;99.90;;;;;;5096147;28;20404;-63
2022/04/02 01:45:00;;;;;;;5.00;3.15;;;1.80;99.90;;;;;;5078455;28;20032;-63
2022/04/02 01:47:25;;;;;;;7.43;2.67;;;1.70;99.90;;;;;;5077283;28;20028;-63
2022/04/02 01:49:51;;;;;;;10.13;2.72;;;1.80;99.90;;;;;;5076661;28;20024;-62
2022/04/02 01:52:19;;;;;;;7.07;2.55;;;1.80;99.90;;;;;;5076868;28;20024;-63
2022/04/02 01:54:46;;;;;;;5.45;2.90;;;1.70;99.90;;;;;;5076492;28;20466;-64
2022/04/02 01:57:12;;;;;;;4.85;2.70;;;1.80;99.90;;;;;;5095133;28;20027;-62
2022/04/02 01:59:40;;;;;;;3.72;2.50;;;1.80;99.90;;;;;;5095017;28;20028;-64
2022/04/02 02:02:08;;;;;;;4.28;2.70;;;1.70;99.90;;;;;;5077773;28;20028;-65
2022/04/02 02:04:34;;;;;;;6.13;2.80;;;1.70;99.90;;;;;;5095625;28;20463;-65
2022/04/02 02:07:00;;;;;;;4.03;2.40;;;1.70;99.90;;;;;;5095082;28;20050;-63
2022/04/02 02:09:26;;;;;;;4.70;3.20;;;1.80;99.90;;;;;;5095356;28;20456;-66
2022/04/02 02:11:52;;;;;;;4.15;2.58;;;1.80;99.90;;;;;;5094180;28;20032;-62
2022/04/02 02:14:17;;;;;;;5.43;2.28;;;1.60;99.90;;;;;;5076735;28;20465;-63
2022/04/02 02:16:43;;;;;;;4.82;2.95;;;1.60;99.90;;;;;;5094370;28;20122;-63
2022/04/02 02:19:09;;;;;;;5.05;2.63;;;1.70;99.90;;;;;;5094872;28;20107;-63
2022/04/02 02:21:35;;;;;;;5.25;3.05;;;1.70;99.90;;;;;;5093989;28;20020;-64
2022/04/02 02:24:00;;;;;;;6.07;3.28;;;1.60;99.90;;;;;;5094864;28;20111;-63
2022/04/02 02:26:26;;;;;;;5.63;2.78;;;1.70;99.90;;;;;;5077811;28;20024;-66
2022/04/02 02:28:52;;;;;;;4.72;2.55;;;1.60;99.90;;;;;;5076963;28;20105;-64
2022/04/02 02:31:18;;;;;;;9.75;2.83;;;1.70;99.90;;;;;;5077332;28;20491;-66
2022/04/02 02:36:27;;;;;;;3.25;2.40;;;1.70;99.90;;;;;;5095457;28;20484;-64
2022/04/02 02:38:53;;;;;;;5.45;3.00;;;1.50;99.90;;;;;;5094753;28;20311;-62
2022/04/02 02:41:20;;;;;;;7.55;3.00;;;1.60;99.90;;;;;;5077342;28;20046;-62
2022/04/02 02:43:45;;;;;;;6.70;3.03;;;1.60;99.90;;;;;;5093955;28;20067;-65
2022/04/02 02:46:14;;;;;;;8.68;3.33;;;1.70;99.90;;;;;;5096722;28;20032;-65
2022/04/02 02:48:40;;;;;;;7.15;3.35;;;1.70;99.90;;;;;;5096880;28;20035;-64
2022/04/02 02:51:06;;;;;;;7.57;3.92;;;1.80;99.90;;;;;;5097057;28;20110;-65
2022/04/02 02:53:32;;;;;;;4.93;3.28;;;1.80;99.90;;;;;;5096095;28;20454;-63
2022/04/02 02:55:58;;;;;;;6.78;2.55;;;1.70;99.90;;;;;;5077152;28;20024;-66
2022/04/02 02:58:23;;;;;;;7.45;3.53;;;1.80;99.90;;;;;;5095354;28;20059;-64
2022/04/02 03:00:49;;;;;;;7.93;2.95;;;1.80;99.90;;;;;;5076462;28;20024;-63
2022/04/02 03:03:15;;;;;;;4.82;4.05;;;1.70;99.90;;;;;;5076347;28;20549;-64
2022/04/02 03:05:41;;;;;;;4.97;3.42;;;1.70;99.90;;;;;;5092931;28;20032;-63
2022/04/02 03:08:07;;;;;;;4.07;2.72;;;1.80;99.90;;;;;;5094662;28;20028;-64
2022/04/02 03:10:33;;;;;;;3.50;2.95;;;1.80;99.90;;;;;;5094184;28;20035;-63
2022/04/02 03:12:59;;;;;;;9.38;4.57;;;1.70;99.90;;;;;;5094332;28;20495;-63
2022/04/02 03:15:25;;;;;;;6.75;3.17;;;1.50;99.90;;;;;;5094433;28;20032;-65
2022/04/02 03:17:52;;;;;;;5.90;2.97;;;1.70;99.90;;;;;;5077700;28;20108;-64
2022/04/02 03:20:20;;;;;;;6.78;3.55;;;1.60;99.90;;;;;;5095269;28;20032;-64
2022/04/02 03:22:48;;;;;;;8.32;3.40;;;1.80;99.90;;;;;;5093756;28;20024;-63
2022/04/02 03:25:19;;;;;;;3.78;2.75;;;1.70;99.90;;;;;;5094184;28;20062;-64
2022/04/02 03:27:46;;;;;;;3.92;2.92;;;1.60;99.90;;;;;;5075448;28;20034;-63
2022/04/02 03:30:14;;;;;;;6.57;3.30;;;1.60;99.90;;;;;;5094533;28;20028;-68
2022/04/02 03:32:40;;;;;;;5.90;3.55;;;1.60;99.90;;;;;;5093555;28;20020;-63
2022/04/02 03:35:07;;;;;;;6.05;3.50;;;1.60;99.90;;;;;;5093863;28;20024;-63
2022/04/02 03:37:37;;;;;;;7.03;3.38;;;1.70;99.90;;;;;;5093488;28;20052;-66
2022/04/02 03:40:08;;;;;;;8.15;4.10;;;1.80;99.90;;;;;;5093426;28;20488;-65
2022/04/02 03:42:37;;;;;;;3.67;3.10;;;1.80;99.90;;;;;;5076726;28;20446;-65
2022/04/02 03:45:06;;;;;;;6.78;2.65;;;1.80;99.90;;;;;;5093730;28;20298;-62
2022/04/02 03:47:32;;;;;;;4.57;3.17;;;1.70;99.90;;;;;;5093870;28;20020;-68
2022/04/02 03:49:58;;;;;;;6.90;3.00;;;1.70;99.90;;;;;;5093207;28;20172;-63
2022/04/02 03:52:24;;;;;;;3.75;2.65;;;1.70;99.90;;;;;;5092110;28;20102;-63
2022/04/02 03:54:50;;;;;;;6.97;2.95;;;1.70;99.90;;;;;;5091796;28;20032;-65
2022/04/02 03:57:16;;;;;;;7.45;2.65;;;1.70;99.90;;;;;;5093053;28;20035;-62
2022/04/02 03:59:43;;;;;;;4.43;2.78;;;1.60;99.90;;;;;;5092730;28;20024;-64
2022/04/02 04:02:09;;;;;;;8.25;3.17;;;1.60;99.90;;;;;;5093962;28;20035;-63
2022/04/02 04:04:36;;;;;;;6.90;3.30;;;1.50;99.90;;;;;;5094402;28;20483;-63
2022/04/02 04:07:02;;;;;;;7.32;3.03;;;1.70;99.90;;;;;;5093542;28;20107;-63
2022/04/02 04:09:28;;;;;;;6.93;3.28;;;1.60;99.90;;;;;;5093690;28;20477;-63
2022/04/02 04:11:54;;;;;;;4.32;3.17;;;1.60;99.90;;;;;;5075293;28;20024;-66
2022/04/02 04:14:20;;;;;;;8.35;3.95;;;1.60;99.90;;;;;;5094132;28;20098;-63
2022/04/02 04:16:46;;;;;;;6.95;3.75;;;1.70;99.90;;;;;;5096220;28;20050;-66
2022/04/02 04:19:13;;;;;;;7.65;3.45;;;1.60;99.90;;;;;;5099635;28;20020;-66
2022/04/02 04:21:40;;;;;;;7.47;5.03;;;1.50;99.90;;;;;;5098279;28;20115;-63
2022/04/02 04:24:07;;;;;;;20.23;4.53;;;1.60;99.90;;;;;;5098682;28;20043;-63
2022/04/02 04:26:33;;;;;;;5.40;4.28;;;1.60;99.90;;;;;;5097648;28;20032;-64
2022/04/02 04:28:59;;;;;;;7.00;4.10;;;1.40;99.90;;;;;;5098887;28;20032;-64
2022/04/02 04:31:25;;;;;;;9.70;4.95;;;1.50;99.90;;;;;;5098578;28;20078;-62
2022/04/02 04:33:51;;;;;;;5.22;4.25;;;1.60;99.90;;;;;;5097974;28;20032;-64
2022/04/02 04:36:21;;;;;;;8.07;3.80;;;1.70;99.90;;;;;;5097567;28;20035;-62
2022/04/02 04:38:48;;;;;;;6.13;4.07;;;1.70;99.90;;;;;;5095883;28;20028;-65
2022/04/02 04:41:14;;;;;;;9.00;4.03;;;1.60;99.90;;;;;;5097323;28;20382;-62
2022/04/02 04:43:41;;;;;;;11.18;4.30;;;1.60;99.90;;;;;;5096377;28;20052;-65
2022/04/02 04:46:08;;;;;;;7.22;4.35;;;1.60;99.90;;;;;;5079532;28;20477;-64
2022/04/02 04:48:35;;;;;;;6.75;4.15;;;1.60;99.90;;;;;;5078531;28;20028;-62
2022/04/02 04:51:02;;;;;;;7.32;3.95;;;1.50;99.90;;;;;;5096574;28;20141;-63
2022/04/02 04:53:28;;;;;;;8.82;4.35;;;1.50;99.90;;;;;;5096813;28;20038;-65
2022/04/02 04:55:56;;;;;;;6.90;4.95;;;1.50;99.90;;;;;;5096980;28;20028;-65
2022/04/02 04:58:22;;;;;;;7.28;3.88;;;1.60;99.90;;;;;;5097863;28;20047;-63
2022/04/02 05:00:48;;;;;;;7.50;4.53;;;1.70;99.90;;;;;;5077582;28;20039;-63
2022/04/02 05:03:14;;;;;;;5.07;3.72;;;1.70;99.90;;;;;;5092430;28;20028;-66
2022/04/02 05:05:39;;;;;;;7.20;3.97;;;1.60;99.90;;;;;;5096179;28;20016;-64
2022/04/02 05:08:06;;;;;;;6.68;4.00;;;1.70;99.90;;;;;;5075179;28;20461;-63
2022/04/02 05:10:33;;;;;;;7.15;3.70;;;1.60;99.90;;;;;;5078109;28;20024;-64
2022/04/02 05:13:00;;;;;;;9.35;4.57;;;1.60;99.90;;;;;;5095423;28;20024;-63
2022/04/02 05:15:26;;;;;;;8.70;4.15;;;1.70;99.90;;;;;;5077550;28;20028;-64
2022/04/02 05:17:52;;;;;;;9.07;4.35;;;1.60;99.90;;;;;;5077772;28;20024;-63
2022/04/02 05:20:18;;;;;;;9.30;3.92;;;1.60;99.90;;;;;;5078929;28;20054;-65
2022/04/02 05:22:44;;;;;;;11.93;4.35;;;1.60;99.90;;;;;;5078189;28;20491;-71
2022/04/02 05:25:11;;;;;;;8.60;4.47;;;1.60;99.90;;;;;;5078362;28;20055;-64
2022/04/02 05:27:37;;;;;;;9.25;4.40;;;1.60;99.90;;;;;;5077456;28;20023;-63
2022/04/02 05:30:04;;;;;;;5.15;3.63;;;1.50;99.90;;;;;;5095245;28;20028;-64
2022/04/02 05:32:30;;;;;;;8.45;4.82;;;1.40;99.90;;;;;;5076150;28;20024;-63
2022/04/02 05:34:59;;;;;;;7.53;3.88;;;1.30;99.90;;;;;;5077892;28;20116;-67
2022/04/02 05:37:25;;;;;;;7.38;4.75;;;1.30;99.90;;;;;;5095295;28;20032;-64
2022/04/02 05:39:51;;;;;;;8.88;3.53;;;1.40;99.90;;;;;;5085086;28;20040;-66
2022/04/02 05:42:17;;;;;;;4.32;3.30;;;1.40;99.90;;;;;;5067536;28;20032;-67
2022/04/02 05:44:43;;;;;;;4.68;3.80;;;1.50;99.90;;;;;;5045136;28;20504;-63
2022/04/02 05:47:09;;;;;;;9.85;4.18;;;1.50;99.90;;;;;;5066161;28;20024;-63
2022/04/02 05:49:36;;;;;;;4.68;3.30;;;1.60;99.90;;;;;;5047632;28;20182;-66
2022/04/02 05:52:01;;;;;;;7.03;3.55;;;1.40;99.90;;;;;;5072506;28;20028;-63
2022/04/02 05:54:27;;;;;;;4.43;3.08;;;1.40;99.90;;;;;;5070713;28;20378;-64
2022/04/02 05:56:53;;;;;;;8.40;4.10;;;1.60;99.90;;;;;;5061545;28;20052;-63
2022/04/02 05:59:20;;;;;;;5.47;3.40;;;1.60;99.90;;;;;;5065216;28;20021;-63
2022/04/02 06:01:47;;;;;;;5.20;3.35;;;1.70;99.90;;;;;;5059769;28;20378;-70
2022/04/02 06:04:13;;;;;;;5.82;3.90;;;1.60;99.90;;;;;;5061478;28;20040;-63
2022/04/02 06:06:39;;;;;;;5.95;4.10;;;1.60;99.90;;;;;;5058452;28;20029;-63
2022/04/02 06:09:05;;;;;;;6.05;3.38;;;1.50;99.90;;;;;;5040471;28;20116;-63
2022/04/02 06:11:31;;;;;;;7.72;3.50;;;1.60;99.90;;;;;;5068635;28;20025;-64
2022/04/02 06:13:57;;;;;;;7.18;3.50;;;1.80;99.90;;;;;;5054476;28;20363;-64
2022/04/02 06:16:26;;;;;;;5.45;3.80;;;1.70;99.90;;;;;;5046395;28;20441;-63
2022/04/02 06:18:52;;;;;;;7.75;4.40;;;1.80;99.90;;;;;;5046838;28;20382;-66
2022/04/02 06:21:19;;;;;;;6.15;3.65;;;1.90;99.90;;;;;;5068145;28;20071;-64
2022/04/02 06:23:45;;;;;;;4.35;3.88;;;1.80;99.90;;;;;;5070381;28;20354;-66
2022/04/02 06:26:11;;;;;;;5.93;3.22;;;1.90;99.90;;;;;;5052631;28;20031;-64
2022/04/02 06:28:37;;;;;;;6.07;4.25;;;1.90;99.90;;;;;;5063860;28;20375;-63
2022/04/02 06:31:03;;;;;;;5.60;4.15;;;1.90;99.90;;;;;;5055272;28;20028;-63
2022/04/02 06:33:30;;;;;;;4.63;3.72;;;2.00;99.90;;;;;;5062801;28;20382;-64
2022/04/02 06:35:56;;;;;;;5.10;3.60;;;1.80;99.90;;;;;;5072755;28;20035;-66
2022/04/02 06:38:21;;;;;;;6.38;4.07;;;1.80;99.90;;;;;;5051013;28;20099;-65
2022/04/02 06:40:47;;;;;;;5.90;4.07;;;1.90;99.90;;;;;;5047587;28;20035;-63
2022/04/02 06:43:13;;;;;;;7.20;4.47;;;2.00;99.90;;;;;;5057594;28;20433;-66
2022/04/02 06:45:39;;;;;;;6.22;3.58;;;2.00;99.90;;;;;;5054654;28;20082;-66
2022/04/02 06:48:05;;;;;;;7.40;4.05;;;2.10;99.90;;;;;;5061622;28;20387;-64
2022/04/02 06:50:31;;;;;;;6.60;3.88;;;2.10;99.90;;;;;;5067016;28;20032;-65
2022/04/02 06:52:57;;;;;;;6.47;3.63;;;2.10;99.90;;;;;;5067498;28;20028;-65
2022/04/02 06:55:23;;;;;;;10.32;3.80;;;2.20;99.90;;;;;;5060910;28;20116;-65
2022/04/02 06:57:52;;;;;;;7.80;4.18;;;2.30;99.90;;;;;;5063631;28;20111;-69
2022/04/02 07:00:18;;;;;;;5.82;3.25;;;3.30;99.90;;;;;;5065625;28;20035;-64
2022/04/02 07:02:45;;;;;;;6.95;3.55;;;2.80;99.90;;;;;;5062020;28;20108;-63
2022/04/02 07:05:11;;;;;;;8.63;3.97;;;2.60;99.90;;;;;;5063459;28;20043;-65
2022/04/02 07:07:37;;;;;;;6.88;3.50;;;2.60;99.90;;;;;;5065798;28;20024;-66
2022/04/02 07:10:04;;;;;;;7.10;3.75;;;2.60;99.90;;;;;;5046809;28;20031;-68
2022/04/02 07:12:31;;;;;;;5.30;3.25;;;2.50;99.90;;;;;;5065217;28;20459;-62
2022/04/02 07:14:57;;;;;;;4.88;3.25;;;2.60;99.90;;;;;;5038810;28;20035;-64
2022/04/02 07:17:23;;;;;;;9.18;3.95;;;2.60;99.90;;;;;;5048326;28;20390;-64
2022/04/02 07:19:50;;;;;;;5.22;3.20;;;2.70;99.90;;;;;;5059118;28;20020;-64
2022/04/02 07:22:18;;;;;;;5.88;3.30;;;2.80;99.90;;;;;;5060111;28;20052;-65
2022/04/02 07:24:44;;;;;;;5.07;2.83;;;2.80;99.90;;;;;;5063828;28;20078;-63
2022/04/02 07:27:10;;;;;;;6.53;2.80;;;2.90;99.90;;;;;;5040134;28;20028;-63
2022/04/02 07:29:36;;;;;;;3.38;2.65;;;2.90;99.90;;;;;;5067093;28;20021;-64
2022/04/02 07:32:02;;;;;;;6.40;2.85;;;2.90;99.90;;;;;;5064194;28;20025;-64
2022/04/02 07:34:28;;;;;;;4.78;2.38;;;2.90;99.90;;;;;;5041911;28;20040;-65
2022/04/02 07:37:23;;;;;;;5.30;3.28;;;3.00;99.90;;;;;;5069805;28;20493;-66
2022/04/02 07:39:56;;;;;;;9.13;3.22;;;2.90;99.90;;;;;;5043368;28;20404;-63
2022/04/02 07:42:37;;;;;;;5.03;2.90;;;2.90;99.90;;;;;;5072118;28;20159;-64
2022/04/02 07:45:08;;;;;;;11.15;3.30;;;2.90;99.90;;;;;;5072756;28;20071;-63
2022/04/02 07:47:44;;;;;;;4.38;3.10;;;2.80;99.90;;;;;;5056156;28;20076;-66
2022/04/02 07:50:15;;;;;;;5.85;3.80;;;2.80;99.90;;;;;;5073584;28;20153;-64
2022/04/02 07:52:45;;;;;;;6.97;3.03;;;2.90;99.90;;;;;;5074787;28;20060;-65
2022/04/02 07:55:12;;;;;;;4.47;3.10;;;2.80;99.90;;;;;;5074174;28;20029;-64
2022/04/02 07:57:41;;;;;;;6.07;2.95;;;2.90;99.90;;;;;;5047992;28;20471;-65
2022/04/02 08:00:12;;;;;;;5.60;2.90;;;2.90;99.90;;;;;;5048837;28;20371;-66
2022/04/02 08:02:42;;;;;;;5.63;2.95;;;2.80;99.90;;;;;;5067747;28;20112;-68
2022/04/02 08:05:15;;;;;;;6.95;3.15;;;2.90;99.90;;;;;;5072194;28;20032;-64
2022/04/02 08:07:43;;;;;;;4.03;3.00;;;3.00;99.90;;;;;;5065630;28;20025;-67
2022/04/02 08:10:12;;;;;;;4.40;2.92;;;3.10;99.90;;;;;;5029924;28;20692;-65
2022/04/02 08:12:39;;;;;;;5.68;2.80;;;3.30;99.90;;;;;;5049967;28;20143;-65
2022/04/02 08:15:11;;;;;;;5.00;2.30;;;3.30;99.90;;;;;;5033009;28;20041;-68
2022/04/02 08:17:39;;;;;;;4.63;3.15;;;3.50;99.90;;;;;;5068191;28;20051;-65
2022/04/02 08:20:05;;;;;;;9.73;2.92;;;3.90;99.90;;;;;;5047235;28;20466;-65
2022/04/02 08:22:31;;;;;;;3.55;3.03;;;4.10;99.90;;;;;;5067243;28;20468;-65
2022/04/02 08:24:58;;;;;;;3.15;2.45;;;4.10;99.90;;;;;;5067928;28;20076;-66
2022/04/02 08:27:46;;;;;;;4.10;3.00;;;4.00;99.90;;;;;;5067196;28;20029;-65
2022/04/02 08:30:23;;;;;;;6.22;2.47;;;4.10;99.90;;;;;;5068673;28;20346;-65
2022/04/02 08:33:26;;;;;;;6.05;3.17;;;4.10;99.90;;;;;;5059833;28;20111;-64
2022/04/02 08:35:57;;;;;;;3.05;2.47;;;3.90;99.90;;;;;;5032136;28;20119;-66
2022/04/02 08:38:32;;;;;;;3.33;2.42;;;3.80;99.90;;;;;;5050713;28;20039;-65
2022/04/02 08:41:19;;;;;;;6.30;2.38;;;4.00;99.90;;;;;;5049422;28;20038;-68
2022/04/02 08:44:23;;;;;;;3.50;2.72;;;4.10;99.90;;;;;;5067876;28;20850;-65
2022/04/02 08:47:26;;;;;;;5.28;2.17;;;4.10;99.90;;;;;;5050931;28;20432;-65
2022/04/02 08:50:10;;;;;;;4.80;2.20;;;4.30;99.90;;;;;;5067779;28;20528;-66
2022/04/02 08:52:57;;;;;;;5.10;2.60;;;4.20;99.90;;;;;;5050345;28;20074;-67
2022/04/02 08:55:29;;;;;;;4.97;2.72;;;4.10;99.90;;;;;;5033087;28;20029;-67
2022/04/02 08:57:54;;;;;;;6.28;3.13;;;4.20;99.90;;;;;;5068200;28;20111;-65
2022/04/02 09:00:28;;;;;;;3.67;2.70;;;4.30;99.90;;;;;;5049318;28;20162;-67
2022/04/02 09:02:53;;;;;;;4.55;2.60;;;4.50;99.90;;;;;;5069405;28;20037;-68
2022/04/02 09:05:53;;;;;;;6.38;2.70;;;4.40;99.90;;;;;;5067243;28;20112;-64
2022/04/02 09:08:22;;;;;;;7.80;3.03;;;4.30;99.90;;;;;;5071116;28;20040;-69
2022/04/02 09:11:27;;;;;;;6.88;2.30;;;4.30;99.90;;;;;;5049190;28;20463;-65
2022/04/02 09:13:59;;;;;;;6.82;2.70;;;4.20;99.90;;;;;;4990136;28;20097;-66
2022/04/02 09:16:36;;;;;;;4.82;3.28;;;4.30;99.90;;;;;;4991413;28;20051;-65
2022/04/02 09:19:10;;;;;;;4.93;2.58;;;4.20;99.90;;;;;;4990096;28;20080;-64
2022/04/02 09:21:56;;;;;;;3.03;2.47;;;4.40;99.90;;;;;;4989792;28;20074;-65
2022/04/02 09:24:36;;;;;;;7.65;3.75;;;4.60;99.90;;;;;;4989058;28;20500;-66
2022/04/02 09:27:39;;;;;;;4.95;2.72;;;4.60;99.90;;;;;;4996455;28;20124;-66
2022/04/02 09:30:22;;;;;;;;;;;4.60;99.90;;;;;;4992935;28;20299;-66
2022/04/02 09:33:15;;;;;;;4.80;3.15;;;4.60;99.90;;;;;;5002779;28;19909;-66
2022/04/02 09:35:58;;;;;;;5.38;2.80;;;4.80;99.90;;;;;;5002186;28;20121;-67
2022/04/02 09:38:45;;;;;;;3.90;3.08;;;5.00;99.90;;;;;;4978624;28;20053;-69
2022/04/02 09:41:16;;;;;;;6.95;2.80;;;5.10;99.90;;;;;;4969348;28;20037;-64
2022/04/02 09:43:55;;;;;;;4.95;3.25;;;5.40;99.90;;;;;;4996982;28;20053;-65
2022/04/02 09:46:32;;;;;;;7.80;3.50;;;5.50;99.90;;;;;;5030501;28;20140;-65
2022/04/02 09:49:35;;;;;;;4.78;3.15;;;5.60;99.90;;;;;;5033091;28;20029;-67
2022/04/02 09:52:06;;;;;;;5.38;3.58;;;5.70;99.90;;;;;;5065175;28;20033;-71
2022/04/02 09:54:46;;;;;;;5.55;3.63;;;5.80;99.90;;;;;;5079117;28;20080;-66
2022/04/02 09:57:25;;;;;;;8.43;3.65;;;5.70;99.90;;;;;;5076793;28;20078;-65
2022/04/02 10:00:03;;;;;;;7.47;3.90;;;5.50;99.90;;;;;;5084000;28;20024;-71
2022/04/02 10:02:57;;;;;;;5.88;3.30;;;5.40;99.90;;;;;;5076635;28;20063;-66
2022/04/02 10:05:32;;;;;;;7.75;4.45;;;5.20;99.90;;;;;;5075434;28;20028;-67
2022/04/02 10:08:04;;;;;;;5.53;3.83;;;5.10;99.90;;;;;;5084655;28;20028;-64
2022/04/02 10:10:31;;;;;;;7.45;4.03;;;5.20;99.90;;;;;;5093937;28;20063;-64
2022/04/02 10:12:57;;;;;;;5.18;4.10;;;5.50;99.90;;;;;;5094691;28;20480;-63
2022/04/02 10:15:23;;;;;;;7.28;4.55;;;5.70;99.90;;;;;;5092170;28;20107;-67
2022/04/02 10:17:54;;;;;;;5.43;3.60;;;6.10;99.90;;;;;;5092856;28;20024;-65
2022/04/02 10:20:23;;;;;;;3.75;3.35;;;6.40;99.90;;;;;;5093135;28;20024;-64
2022/04/02 10:23:01;;;;;;;5.38;4.05;;;6.90;99.90;;;;;;5074403;28;20452;-66
2022/04/02 10:25:31;;;;;;;6.30;4.28;;;6.80;99.90;;;;;;5072653;28;20044;-66
2022/04/02 10:28:02;;;;;;;7.18;4.32;;;7.00;99.90;;;;;;5073219;28;20458;-71
2022/04/02 10:30:30;;;;;;;4.93;2.87;;;7.30;99.90;;;;;;5074435;28;20017;-66
2022/04/02 10:35:50;;;;;;;6.40;4.00;;;8.80;99.20;;;;;;5074124;28;20036;-65
2022/04/02 10:38:37;;;;;;;8.93;3.55;;;8.30;99.90;;;;;;5073374;28;20025;-63
2022/04/02 10:41:18;;;;;;;9.65;5.47;;;8.30;99.90;;;;;;5080400;28;20427;-72
2022/04/02 10:43:51;;;;;;;7.80;3.78;;;8.40;99.90;;;;;;5080088;28;20390;-65
2022/04/02 10:46:20;;;;;;;5.75;3.80;;;8.50;99.90;;;;;;5073759;28;20021;-71
2022/04/02 10:49:04;;;;;;;4.47;3.55;;;8.90;99.40;;;;;;5074180;28;20020;-64
2022/04/02 10:51:32;;;;;;;6.43;3.92;;;9.00;97.80;;;;;;5073647;28;20378;-64
2022/04/02 10:54:10;;;;;;;3.67;3.15;;;8.70;98.80;;;;;;5070681;28;20413;-64
2022/04/02 10:56:45;;;;;;;7.32;3.85;;;8.50;97.20;;;;;;5064790;28;20062;-64
2022/04/02 10:59:13;;;;;;;5.97;3.17;;;8.30;97.10;;;;;;5073262;28;20071;-68
2022/04/02 11:01:43;;;;;;;4.32;2.85;;;8.60;99.90;;;;;;5048018;28;20029;-67
2022/04/02 11:04:33;;;;;;;8.32;3.53;;;10.30;99.90;;;;;;5045964;28;20050;-69
2022/04/02 11:07:00;;;;;;;9.23;3.60;;;11.00;99.90;;;;;;5050602;28;20386;-69
2022/04/02 11:09:36;;;;;;;4.85;3.70;;;9.80;94.30;;;;;;5045813;28;20043;-66
2022/04/02 11:12:14;;;;;;;7.20;3.92;;;9.30;95.00;;;;;;5044946;28;20471;-69
2022/04/02 11:14:45;;;;;;;4.15;3.17;;;8.40;95.10;;;;;;5070307;28;20037;-65
2022/04/02 11:17:30;;;;;;;6.50;3.75;;;8.10;95.80;;;;;;5071514;28;20021;-64
2022/04/02 11:20:12;;;;;;;9.32;4.28;;;7.80;95.90;;;;;;5053076;28;20078;-63
2022/04/02 11:22:52;;;;;;;9.27;4.18;;;8.00;96.10;;;;;;5054548;28;20174;-64
2022/04/02 11:25:28;;;;;;;4.60;3.20;;;7.80;96.40;;;;;;5042865;28;20124;-65
2022/04/02 11:27:58;;;;;;;11.25;3.95;;;8.10;95.70;;;;;;5055293;28;20021;-65
2022/04/02 11:30:30;;;;;;;6.82;3.17;;;8.30;96.20;;;;;;5054556;28;20058;-65
2022/04/02 11:33:16;;;;;;;7.78;3.33;;;8.50;96.30;;;;;;5073218;28;20020;-66
2022/04/02 11:35:51;;;;;;;8.60;3.83;;;8.20;95.00;;;;;;5055123;28;20123;-65
2022/04/02 11:38:20;;;;;;;6.53;2.85;;;8.10;95.20;;;;;;5072390;28;20028;-64
2022/04/02 11:40:55;;;;;;;9.35;3.58;;;8.20;96.20;;;;;;5053548;28;20031;-65
2022/04/02 11:43:42;;;;;;;8.32;3.78;;;8.20;95.70;;;;;;5065737;28;20053;-63
2022/04/02 11:46:13;;;;;;;6.22;2.95;;;8.50;94.80;;;;;;5071523;28;20045;-66
2022/04/02 11:48:51;;;;;;;4.80;3.30;;;8.10;95.00;;;;;;5067395;28;20037;-65
2022/04/02 11:51:19;;;;;;;4.43;3.03;;;7.90;95.10;;;;;;5065683;28;20032;-67
2022/04/02 11:53:45;;;;;;;7.68;3.10;;;7.70;95.90;;;;;;5050465;28;20078;-73
2022/04/02 11:56:43;;;;;;;6.78;3.45;;;7.60;95.80;;;;;;5051536;28;20037;-71
2022/04/02 11:59:10;;;;;;;8.20;3.95;;;7.40;99.90;;;;;;5036089;28;20470;-69
2022/04/02 12:01:49;;;;;;;5.97;3.35;;;7.70;99.90;;;;;;5050466;28;20036;-68
2022/04/02 12:04:19;;;;;;;10.68;4.38;;;7.50;98.50;;;;;;5056479;28;20110;-64
2022/04/02 12:06:52;;;;;;;4.80;3.15;;;7.60;98.50;;;;;;5058624;28;20064;-65
2022/04/02 12:09:19;;;;;;;7.38;3.58;;;7.70;97.60;;;;;;5066439;28;20481;-67
2022/04/02 12:11:55;;;;;;;8.77;5.45;;;7.40;97.10;;;;;;5067580;28;20494;-65
2022/04/02 12:14:38;;;;;;;7.95;3.92;;;7.50;97.40;;;;;;5065113;28;20037;-65
2022/04/02 12:17:15;;;;;;;4.95;3.15;;;7.20;97.10;;;;;;5044243;28;20032;-67
2022/04/02 12:19:53;;;;;;;7.55;3.33;;;7.10;97.00;;;;;;5061972;28;20025;-64
2022/04/02 12:22:19;;;;;;;5.38;3.28;;;7.00;97.50;;;;;;5070854;28;20104;-68
2022/04/02 12:24:52;;;;;;;8.38;3.42;;;7.60;99.90;;;;;;5034596;28;20032;-69
2022/04/02 12:27:31;;;;;;;7.95;3.17;;;7.90;99.90;;;;;;5048241;28;20035;-69
2022/04/02 12:29:59;;;;;;;4.20;2.97;;;8.40;99.30;;;;;;5045770;28;20115;-67
2022/04/02 12:32:34;;;;;;;5.43;2.95;;;8.50;98.00;;;;;;5072960;28;20029;-73
2022/04/02 12:35:07;;;;;;;6.53;2.97;;;8.50;97.00;;;;;;5034897;28;20043;-68
2022/04/02 12:37:55;;;;;;;8.07;3.45;;;8.60;98.00;;;;;;5036883;28;20044;-65
2022/04/02 12:40:26;;;;;;;4.45;2.55;;;8.40;94.80;;;;;;5055657;28;20431;-64
2022/04/02 12:42:55;;;;;;;9.13;3.20;;;8.10;94.70;;;;;;5055089;28;20040;-65
2022/04/02 12:45:26;;;;;;;12.30;2.80;;;7.80;94.40;;;;;;5084660;28;20094;-66
2022/04/02 12:47:58;;;;;;;7.47;2.88;;;7.60;95.00;;;;;;5090277;28;20032;-64
2022/04/02 12:50:25;;;;;;;6.35;3.50;;;7.60;95.40;;;;;;5094298;28;20028;-65
2022/04/02 12:52:51;;;;;;;6.25;3.55;;;7.50;95.00;;;;;;5090352;28;20086;-65
2022/04/02 12:55:22;;;;;;;5.90;3.42;;;7.40;95.20;;;;;;5091656;28;20423;-64
2022/04/02 12:58:10;;;;;;;10.45;3.40;;;7.10;95.50;;;;;;5095872;28;20059;-65
2022/04/02 13:00:44;;;;;;;4.82;3.15;;;7.00;96.30;;;;;;5095983;28;20035;-65
2022/04/02 13:03:31;;;;;;;7.55;3.15;;;7.10;96.20;;;;;;5095957;28;20024;-64
2022/04/02 13:06:01;;;;;;;3.83;2.72;;;6.90;95.00;;;;;;5094959;28;20415;-64
2022/04/02 13:08:28;;;;;;;4.68;3.05;;;7.00;95.20;;;;;;5093951;28;20561;-66
2022/04/02 13:11:01;;;;;;;9.02;2.83;;;7.30;95.20;;;;;;5095532;28;20111;-65
2022/04/02 13:13:37;;;;;;;6.32;3.35;;;7.10;94.40;;;;;;5093072;28;20156;-67
2022/04/02 13:16:04;;;;;;;6.20;2.88;;;7.00;94.80;;;;;;5075019;28;20035;-64
2022/04/02 13:21:22;;;;;;;4.10;2.30;;;7.20;94.70;;;;;;5075228;28;20031;-67
2022/04/02 13:24:06;;;;;;;3.73;2.50;;;7.30;94.60;;;;;;5074618;28;20084;-65